sensor_id;sensor_type;location;lat;lon;timestamp;temperature;humidity
16829;DHT22;8531;48.078;11.968;2023-05-29T00:01:44;16.60;99.90
16829;DHT22;8531;48.078;11.968;2023-05-29T00:04:11;16.50;99.90
16829;DHT22;8531;48.078;11.968;2023-05-29T00:06:37;16.50;99.90
16829;DHT22;8531;48.078;11.968;2023-05-29T00:09:03;16.50;99.90
16829;DHT22;8531;48.078;11.968;2023-05-29T00:11:29;16.50;99.90
16829;DHT22;8531;48.078;11.968;2023-05-29T00:13:55;16.40;99.90
16829;DHT22;8531;48.078;11.968;2023-05-29T00:16:22;16.40;99.90
16829;DHT22;8531;48.078;11.968;2023-05-29T00:18:49;16.30;99.90
16829;DHT22;8531;48.078;11.968;2023-05-29T00:21:15;16.30;99.90
16829;DHT22;8531;48.078;11.968;2023-05-29T00:23:41;16.10;99.90
16829;DHT22;8531;48.078;11.968;2023-05-29T00:26:07;16.10;99.90
16829;DHT22;8531;48.078;11.968;2023-05-29T00:28:34;16.00;99.90
16829;DHT22;8531;48.078;11.968;2023-05-29T00:31:00;16.00;99.90
16829;DHT22;8531;48.078;11.968;2023-05-29T00:33:26;16.00;99.90
16829;DHT22;8531;48.078;11.968;2023-05-29T00:35:52;15.90;99.90
16829;DHT22;8531;48.078;11.968;2023-05-29T00:38:17;15.80;99.90
16829;DHT22;8531;48.078;11.968;2023-05-29T00:40:43;15.80;99.90
16829;DHT22;8531;48.078;11.968;2023-05-29T00:43:09;15.80;99.90
16829;DHT22;8531;48.078;11.968;2023-05-29T00:45:34;15.70;99.90
16829;DHT22;8531;48.078;11.968;2023-05-29T00:48:02;15.70;99.90
16829;DHT22;8531;48.078;11.968;2023-05-29T00:50:28;15.60;99.90
16829;DHT22;8531;48.078;11.968;2023-05-29T00:52:54;15.60;99.90
16829;DHT22;8531;48.078;11.968;2023-05-29T00:55:20;15.60;99.90
16829;DHT22;8531;48.078;11.968;2023-05-29T00:57:46;15.50;99.90
16829;DHT22;8531;48.078;11.968;2023-05-29T01:00:13;15.50;99.90
16829;DHT22;8531;48.078;11.968;2023-05-29T01:02:40;15.50;99.90
16829;DHT22;8531;48.078;11.968;2023-05-29T01:05:10;15.40;99.90
16829;DHT22;8531;48.078;11.968;2023-05-29T01:07:37;15.30;99.90
16829;DHT22;8531;48.078;11.968;2023-05-29T01:10:04;15.40;99.90
16829;DHT22;8531;48.078;11.968;2023-05-29T01:12:57;15.50;99.90
16829;DHT22;8531;48.078;11.968;2023-05-29T01:21:08;15.30;99.90
16829;DHT22;8531;48.078;11.968;2023-05-29T01:29:15;15.10;99.90
16829;DHT22;8531;48.078;11.968;2023-05-29T01:31:43;15.10;99.90
16829;DHT22;8531;48.078;11.968;2023-05-29T01:34:09;15.10;99.90
16829;DHT22;8531;48.078;11.968;2023-05-29T01:36:35;15.10;99.90
16829;DHT22;8531;48.078;11.968;2023-05-29T01:39:02;15.10;99.90
16829;DHT22;8531;48.078;11.968;2023-05-29T01:41:29;15.10;99.90
16829;DHT22;8531;48.078;11.968;2023-05-29T01:43:57;15.10;99.90
16829;DHT22;8531;48.078;11.968;2023-05-29T01:46:23;15.00;99.90
16829;DHT22;8531;48.078;11.968;2023-05-29T01:48:51;15.10;99.90
16829;DHT22;8531;48.078;11.968;2023-05-29T01:51:17;15.00;99.90
16829;DHT22;8531;48.078;11.968;2023-05-29T01:53:43;14.80;99.90
16829;DHT22;8531;48.078;11.968;2023-05-29T01:56:09;14.70;99.90
16829;DHT22;8531;48.078;11.968;2023-05-29T01:58:37;14.60;99.90
16829;DHT22;8531;48.078;11.968;2023-05-29T02:01:03;14.50;99.90
16829;DHT22;8531;48.078;11.968;2023-05-29T02:03:29;14.40;99.90
16829;DHT22;8531;48.078;11.968;2023-05-29T02:05:57;14.20;99.90
16829;DHT22;8531;48.078;11.968;2023-05-29T02:08:23;14.20;99.90
16829;DHT22;8531;48.078;11.968;2023-05-29T02:10:49;14.10;99.90
16829;DHT22;8531;48.078;11.968;2023-05-29T02:13:16;14.00;99.90
16829;DHT22;8531;48.078;11.968;2023-05-29T02:15:41;13.90;99.90
16829;DHT22;8531;48.078;11.968;2023-05-29T02:18:14;13.90;99.90
16829;DHT22;8531;48.078;11.968;2023-05-29T02:20:40;13.90;99.90
16829;DHT22;8531;48.078;11.968;2023-05-29T02:23:07;13.70;99.90
16829;DHT22;8531;48.078;11.968;2023-05-29T02:25:33;13.70;99.90
16829;DHT22;8531;48.078;11.968;2023-05-29T02:27:59;13.70;99.90
16829;DHT22;8531;48.078;11.968;2023-05-29T02:30:24;13.70;99.90
16829;DHT22;8531;48.078;11.968;2023-05-29T02:32:50;13.70;99.90
16829;DHT22;8531;48.078;11.968;2023-05-29T02:35:17;13.90;99.90
16829;DHT22;8531;48.078;11.968;2023-05-29T02:37:46;13.80;99.90
16829;DHT22;8531;48.078;11.968;2023-05-29T02:40:11;14.00;99.90
16829;DHT22;8531;48.078;11.968;2023-05-29T02:42:37;14.10;99.90
16829;DHT22;8531;48.078;11.968;2023-05-29T02:45:03;14.10;99.90
16829;DHT22;8531;48.078;11.968;2023-05-29T02:47:29;14.20;99.90
16829;DHT22;8531;48.078;11.968;2023-05-29T02:49:55;14.30;99.90
16829;DHT22;8531;48.078;11.968;2023-05-29T02:52:20;14.30;99.90
16829;DHT22;8531;48.078;11.968;2023-05-29T02:54:48;14.30;99.90
16829;DHT22;8531;48.078;11.968;2023-05-29T02:57:14;14.20;99.90
16829;DHT22;8531;48.078;11.968;2023-05-29T02:59:40;14.20;99.90
16829;DHT22;8531;48.078;11.968;2023-05-29T03:02:06;14.20;99.90
16829;DHT22;8531;48.078;11.968;2023-05-29T03:04:32;14.20;99.90
16829;DHT22;8531;48.078;11.968;2023-05-29T03:06:57;14.20;99.90
16829;DHT22;8531;48.078;11.968;2023-05-29T03:09:23;14.20;99.90
16829;DHT22;8531;48.078;11.968;2023-05-29T03:11:49;14.10;99.90
16829;DHT22;8531;48.078;11.968;2023-05-29T03:14:16;14.00;99.90
16829;DHT22;8531;48.078;11.968;2023-05-29T03:16:43;14.00;99.90
16829;DHT22;8531;48.078;11.968;2023-05-29T03:19:09;14.10;99.90
16829;DHT22;8531;48.078;11.968;2023-05-29T03:21:34;14.10;99.90
16829;DHT22;8531;48.078;11.968;2023-05-29T03:24:01;14.10;99.90
16829;DHT22;8531;48.078;11.968;2023-05-29T03:26:31;14.00;99.90
16829;DHT22;8531;48.078;11.968;2023-05-29T03:28:56;14.00;99.90
16829;DHT22;8531;48.078;11.968;2023-05-29T03:31:22;13.80;99.90
16829;DHT22;8531;48.078;11.968;2023-05-29T03:33:48;13.60;99.90
16829;DHT22;8531;48.078;11.968;2023-05-29T03:36:14;13.60;99.90
16829;DHT22;8531;48.078;11.968;2023-05-29T03:38:42;13.50;99.90
16829;DHT22;8531;48.078;11.968;2023-05-29T03:41:08;13.50;99.90
16829;DHT22;8531;48.078;11.968;2023-05-29T03:43:34;13.50;99.90
16829;DHT22;8531;48.078;11.968;2023-05-29T03:46:00;13.40;99.90
16829;DHT22;8531;48.078;11.968;2023-05-29T03:48:25;13.50;99.90
16829;DHT22;8531;48.078;11.968;2023-05-29T03:50:51;13.50;99.90
16829;DHT22;8531;48.078;11.968;2023-05-29T03:53:17;13.60;99.90
16829;DHT22;8531;48.078;11.968;2023-05-29T03:55:42;13.60;99.90
16829;DHT22;8531;48.078;11.968;2023-05-29T03:58:08;13.70;99.90
16829;DHT22;8531;48.078;11.968;2023-05-29T04:00:33;13.70;99.90
16829;DHT22;8531;48.078;11.968;2023-05-29T04:02:59;13.70;99.90
16829;DHT22;8531;48.078;11.968;2023-05-29T04:05:25;13.60;99.90
16829;DHT22;8531;48.078;11.968;2023-05-29T04:07:52;13.60;99.90
16829;DHT22;8531;48.078;11.968;2023-05-29T04:10:17;13.50;99.90
16829;DHT22;8531;48.078;11.968;2023-05-29T04:12:43;13.50;99.90
16829;DHT22;8531;48.078;11.968;2023-05-29T04:15:09;13.60;99.90
16829;DHT22;8531;48.078;11.968;2023-05-29T04:17:35;13.60;99.90
16829;DHT22;8531;48.078;11.968;2023-05-29T04:20:00;13.60;99.90
16829;DHT22;8531;48.078;11.968;2023-05-29T04:22:33;13.70;99.90
16829;DHT22;8531;48.078;11.968;2023-05-29T04:24:58;13.60;99.90
16829;DHT22;8531;48.078;11.968;2023-05-29T04:27:24;13.70;99.90
16829;DHT22;8531;48.078;11.968;2023-05-29T04:29:50;13.80;99.90
16829;DHT22;8531;48.078;11.968;2023-05-29T04:32:15;13.90;99.90
16829;DHT22;8531;48.078;11.968;2023-05-29T04:34:41;14.00;99.90
16829;DHT22;8531;48.078;11.968;2023-05-29T04:37:09;14.10;99.90
16829;DHT22;8531;48.078;11.968;2023-05-29T04:39:35;14.20;99.90
16829;DHT22;8531;48.078;11.968;2023-05-29T04:42:00;14.10;99.90
16829;DHT22;8531;48.078;11.968;2023-05-29T04:44:26;14.00;99.90
16829;DHT22;8531;48.078;11.968;2023-05-29T04:46:53;14.10;99.90
16829;DHT22;8531;48.078;11.968;2023-05-29T04:49:19;14.10;99.90
16829;DHT22;8531;48.078;11.968;2023-05-29T04:51:46;14.20;99.90
16829;DHT22;8531;48.078;11.968;2023-05-29T04:54:12;14.30;99.90
16829;DHT22;8531;48.078;11.968;2023-05-29T04:56:38;14.40;99.90
16829;DHT22;8531;48.078;11.968;2023-05-29T04:59:06;14.40;99.90
16829;DHT22;8531;48.078;11.968;2023-05-29T05:01:32;14.30;99.90
16829;DHT22;8531;48.078;11.968;2023-05-29T05:03:59;14.40;99.90
16829;DHT22;8531;48.078;11.968;2023-05-29T05:06:25;14.50;99.90
16829;DHT22;8531;48.078;11.968;2023-05-29T05:08:52;14.60;99.90
16829;DHT22;8531;48.078;11.968;2023-05-29T05:11:21;14.60;99.90
16829;DHT22;8531;48.078;11.968;2023-05-29T05:13:47;14.60;99.90
16829;DHT22;8531;48.078;11.968;2023-05-29T05:16:13;14.60;99.90
16829;DHT22;8531;48.078;11.968;2023-05-29T05:18:38;14.60;99.90
16829;DHT22;8531;48.078;11.968;2023-05-29T05:21:04;14.80;99.90
16829;DHT22;8531;48.078;11.968;2023-05-29T05:23:31;15.00;99.90
16829;DHT22;8531;48.078;11.968;2023-05-29T05:25:57;15.10;99.90
16829;DHT22;8531;48.078;11.968;2023-05-29T05:28:22;15.20;99.90
16829;DHT22;8531;48.078;11.968;2023-05-29T05:30:48;15.10;99.90
16829;DHT22;8531;48.078;11.968;2023-05-29T05:33:14;15.10;99.90
16829;DHT22;8531;48.078;11.968;2023-05-29T05:35:39;15.20;99.90
16829;DHT22;8531;48.078;11.968;2023-05-29T05:38:05;15.20;99.90
16829;DHT22;8531;48.078;11.968;2023-05-29T05:40:32;15.20;99.90
16829;DHT22;8531;48.078;11.968;2023-05-29T05:42:57;15.30;99.90
16829;DHT22;8531;48.078;11.968;2023-05-29T05:45:23;15.50;99.90
16829;DHT22;8531;48.078;11.968;2023-05-29T05:47:49;15.50;99.90
16829;DHT22;8531;48.078;11.968;2023-05-29T05:50:15;15.50;99.90
16829;DHT22;8531;48.078;11.968;2023-05-29T05:52:40;15.40;99.90
16829;DHT22;8531;48.078;11.968;2023-05-29T05:55:07;15.50;99.90
16829;DHT22;8531;48.078;11.968;2023-05-29T05:57:33;15.50;99.90
16829;DHT22;8531;48.078;11.968;2023-05-29T06:00:03;15.50;99.90
16829;DHT22;8531;48.078;11.968;2023-05-29T06:02:39;15.40;99.90
16829;DHT22;8531;48.078;11.968;2023-05-29T06:05:08;15.50;99.90
16829;DHT22;8531;48.078;11.968;2023-05-29T06:07:35;15.50;99.90
16829;DHT22;8531;48.078;11.968;2023-05-29T06:10:01;15.50;99.90
16829;DHT22;8531;48.078;11.968;2023-05-29T06:12:26;15.50;99.90
16829;DHT22;8531;48.078;11.968;2023-05-29T06:14:53;15.50;99.90
16829;DHT22;8531;48.078;11.968;2023-05-29T06:17:18;15.60;99.90
16829;DHT22;8531;48.078;11.968;2023-05-29T06:19:44;15.70;99.90
16829;DHT22;8531;48.078;11.968;2023-05-29T06:22:10;15.80;99.90
16829;DHT22;8531;48.078;11.968;2023-05-29T06:24:35;15.90;99.90
16829;DHT22;8531;48.078;11.968;2023-05-29T06:27:01;16.00;99.90
16829;DHT22;8531;48.078;11.968;2023-05-29T06:29:27;16.10;99.90
16829;DHT22;8531;48.078;11.968;2023-05-29T06:31:52;16.20;99.90
16829;DHT22;8531;48.078;11.968;2023-05-29T06:34:18;16.30;99.90
16829;DHT22;8531;48.078;11.968;2023-05-29T06:36:44;16.30;99.90
16829;DHT22;8531;48.078;11.968;2023-05-29T06:39:09;16.40;99.90
16829;DHT22;8531;48.078;11.968;2023-05-29T06:41:35;16.40;99.90
16829;DHT22;8531;48.078;11.968;2023-05-29T06:44:01;16.70;99.90
16829;DHT22;8531;48.078;11.968;2023-05-29T06:46:27;17.10;99.90
16829;DHT22;8531;48.078;11.968;2023-05-29T06:48:52;17.20;99.90
16829;DHT22;8531;48.078;11.968;2023-05-29T06:51:18;17.00;99.90
16829;DHT22;8531;48.078;11.968;2023-05-29T06:53:44;16.90;99.90
16829;DHT22;8531;48.078;11.968;2023-05-29T06:56:10;17.00;99.90
16829;DHT22;8531;48.078;11.968;2023-05-29T06:58:35;17.20;99.90
16829;DHT22;8531;48.078;11.968;2023-05-29T07:01:01;17.30;99.90
16829;DHT22;8531;48.078;11.968;2023-05-29T07:03:27;17.50;99.90
16829;DHT22;8531;48.078;11.968;2023-05-29T07:05:53;17.70;99.90
16829;DHT22;8531;48.078;11.968;2023-05-29T07:08:19;17.60;99.90
16829;DHT22;8531;48.078;11.968;2023-05-29T07:10:45;17.60;99.90
16829;DHT22;8531;48.078;11.968;2023-05-29T07:13:14;17.70;99.90
16829;DHT22;8531;48.078;11.968;2023-05-29T07:15:40;17.80;99.90
16829;DHT22;8531;48.078;11.968;2023-05-29T07:18:06;18.30;99.90
16829;DHT22;8531;48.078;11.968;2023-05-29T07:20:31;18.50;99.90
16829;DHT22;8531;48.078;11.968;2023-05-29T07:22:57;18.60;99.90
16829;DHT22;8531;48.078;11.968;2023-05-29T07:25:23;18.40;99.90
16829;DHT22;8531;48.078;11.968;2023-05-29T07:27:48;18.50;99.90
16829;DHT22;8531;48.078;11.968;2023-05-29T07:30:14;18.80;99.90
16829;DHT22;8531;48.078;11.968;2023-05-29T07:32:40;19.10;99.90
16829;DHT22;8531;48.078;11.968;2023-05-29T07:35:06;19.00;99.90
16829;DHT22;8531;48.078;11.968;2023-05-29T07:37:33;19.10;99.90
16829;DHT22;8531;48.078;11.968;2023-05-29T07:39:59;19.10;99.90
16829;DHT22;8531;48.078;11.968;2023-05-29T07:42:25;19.10;99.90
16829;DHT22;8531;48.078;11.968;2023-05-29T07:44:51;19.10;99.90
16829;DHT22;8531;48.078;11.968;2023-05-29T07:47:16;19.20;99.90
16829;DHT22;8531;48.078;11.968;2023-05-29T07:49:42;19.50;99.90
16829;DHT22;8531;48.078;11.968;2023-05-29T07:52:08;20.00;99.90
16829;DHT22;8531;48.078;11.968;2023-05-29T07:54:33;20.20;99.90
16829;DHT22;8531;48.078;11.968;2023-05-29T07:57:00;20.60;99.90
16829;DHT22;8531;48.078;11.968;2023-05-29T07:59:26;20.20;99.90
16829;DHT22;8531;48.078;11.968;2023-05-29T08:01:52;20.50;99.90
16829;DHT22;8531;48.078;11.968;2023-05-29T08:04:17;20.80;99.90
16829;DHT22;8531;48.078;11.968;2023-05-29T08:06:43;20.70;99.90
16829;DHT22;8531;48.078;11.968;2023-05-29T08:09:10;20.60;99.90
16829;DHT22;8531;48.078;11.968;2023-05-29T08:11:38;20.40;99.90
16829;DHT22;8531;48.078;11.968;2023-05-29T08:14:04;20.70;99.90
16829;DHT22;8531;48.078;11.968;2023-05-29T08:16:30;21.00;99.90
16829;DHT22;8531;48.078;11.968;2023-05-29T08:18:55;20.90;99.90
16829;DHT22;8531;48.078;11.968;2023-05-29T08:21:21;21.10;99.90
16829;DHT22;8531;48.078;11.968;2023-05-29T08:23:47;21.20;99.90
16829;DHT22;8531;48.078;11.968;2023-05-29T08:26:12;21.20;99.90
16829;DHT22;8531;48.078;11.968;2023-05-29T08:28:39;21.50;99.90
16829;DHT22;8531;48.078;11.968;2023-05-29T08:31:04;21.80;99.90
16829;DHT22;8531;48.078;11.968;2023-05-29T08:33:30;21.80;99.90
16829;DHT22;8531;48.078;11.968;2023-05-29T08:35:58;21.80;99.90
16829;DHT22;8531;48.078;11.968;2023-05-29T08:38:24;22.10;99.90
16829;DHT22;8531;48.078;11.968;2023-05-29T08:40:51;22.10;99.90
16829;DHT22;8531;48.078;11.968;2023-05-29T08:43:22;21.90;99.90
16829;DHT22;8531;48.078;11.968;2023-05-29T08:45:53;22.10;99.90
16829;DHT22;8531;48.078;11.968;2023-05-29T08:48:23;22.40;99.90
16829;DHT22;8531;48.078;11.968;2023-05-29T08:50:54;22.70;99.90
16829;DHT22;8531;48.078;11.968;2023-05-29T08:53:21;22.70;99.90
16829;DHT22;8531;48.078;11.968;2023-05-29T08:55:48;23.10;99.90
16829;DHT22;8531;48.078;11.968;2023-05-29T08:58:16;23.00;99.90
16829;DHT22;8531;48.078;11.968;2023-05-29T09:00:47;23.20;99.90
16829;DHT22;8531;48.078;11.968;2023-05-29T09:03:13;22.80;99.90
16829;DHT22;8531;48.078;11.968;2023-05-29T09:05:41;22.80;99.90
16829;DHT22;8531;48.078;11.968;2023-05-29T09:08:11;22.90;99.90
16829;DHT22;8531;48.078;11.968;2023-05-29T09:10:41;23.30;99.90
16829;DHT22;8531;48.078;11.968;2023-05-29T09:13:07;23.70;99.90
16829;DHT22;8531;48.078;11.968;2023-05-29T09:15:34;24.10;99.90
16829;DHT22;8531;48.078;11.968;2023-05-29T09:18:00;24.30;99.90
16829;DHT22;8531;48.078;11.968;2023-05-29T09:20:26;24.60;99.90
16829;DHT22;8531;48.078;11.968;2023-05-29T09:23:00;24.40;99.90
16829;DHT22;8531;48.078;11.968;2023-05-29T09:25:28;24.00;99.90
16829;DHT22;8531;48.078;11.968;2023-05-29T09:28:02;24.70;99.90
16829;DHT22;8531;48.078;11.968;2023-05-29T09:33:00;24.40;99.90
16829;DHT22;8531;48.078;11.968;2023-05-29T09:35:32;24.00;99.90
16829;DHT22;8531;48.078;11.968;2023-05-29T09:37:58;24.10;99.90
16829;DHT22;8531;48.078;11.968;2023-05-29T09:40:24;23.90;99.90
16829;DHT22;8531;48.078;11.968;2023-05-29T09:42:49;24.30;99.90
16829;DHT22;8531;48.078;11.968;2023-05-29T09:45:18;24.50;99.90
16829;DHT22;8531;48.078;11.968;2023-05-29T09:47:45;24.90;99.90
16829;DHT22;8531;48.078;11.968;2023-05-29T09:50:20;25.40;99.90
16829;DHT22;8531;48.078;11.968;2023-05-29T09:52:50;25.70;99.90
16829;DHT22;8531;48.078;11.968;2023-05-29T09:55:20;25.40;99.90
16829;DHT22;8531;48.078;11.968;2023-05-29T09:57:47;25.80;99.90
16829;DHT22;8531;48.078;11.968;2023-05-29T10:00:17;25.40;99.90
16829;DHT22;8531;48.078;11.968;2023-05-29T10:02:43;24.90;99.90
16829;DHT22;8531;48.078;11.968;2023-05-29T10:05:09;24.90;99.90
16829;DHT22;8531;48.078;11.968;2023-05-29T10:07:37;25.40;99.90
16829;DHT22;8531;48.078;11.968;2023-05-29T10:10:06;25.70;99.90
16829;DHT22;8531;48.078;11.968;2023-05-29T10:12:38;26.00;99.90
16829;DHT22;8531;48.078;11.968;2023-05-29T10:15:15;25.10;98.60
16829;DHT22;8531;48.078;11.968;2023-05-29T10:18:11;25.40;98.60
16829;DHT22;8531;48.078;11.968;2023-05-29T10:20:38;25.40;98.80
16829;DHT22;8531;48.078;11.968;2023-05-29T10:23:04;25.60;98.10
16829;DHT22;8531;48.078;11.968;2023-05-29T10:25:33;25.50;99.20
16829;DHT22;8531;48.078;11.968;2023-05-29T10:28:01;25.50;98.00
16829;DHT22;8531;48.078;11.968;2023-05-29T10:30:51;25.40;98.30
16829;DHT22;8531;48.078;11.968;2023-05-29T10:33:33;25.10;98.70
16829;DHT22;8531;48.078;11.968;2023-05-29T10:36:14;25.60;97.70
16829;DHT22;8531;48.078;11.968;2023-05-29T10:38:45;25.30;98.50
16829;DHT22;8531;48.078;11.968;2023-05-29T10:43:57;25.60;97.70
16829;DHT22;8531;48.078;11.968;2023-05-29T10:49:17;25.80;97.60
16829;DHT22;8531;48.078;11.968;2023-05-29T10:51:43;25.80;97.00
16829;DHT22;8531;48.078;11.968;2023-05-29T10:54:09;26.00;97.60
16829;DHT22;8531;48.078;11.968;2023-05-29T10:56:36;26.10;97.40
16829;DHT22;8531;48.078;11.968;2023-05-29T10:59:01;26.20;96.30
16829;DHT22;8531;48.078;11.968;2023-05-29T11:01:29;26.60;96.30
16829;DHT22;8531;48.078;11.968;2023-05-29T11:06:44;26.30;96.30
16829;DHT22;8531;48.078;11.968;2023-05-29T11:09:39;26.90;96.10
16829;DHT22;8531;48.078;11.968;2023-05-29T11:12:24;26.50;95.20
16829;DHT22;8531;48.078;11.968;2023-05-29T11:15:06;27.00;94.40
16829;DHT22;8531;48.078;11.968;2023-05-29T11:23:00;26.20;94.00
16829;DHT22;8531;48.078;11.968;2023-05-29T11:25:27;27.10;93.70
16829;DHT22;8531;48.078;11.968;2023-05-29T11:27:53;26.80;94.70
16829;DHT22;8531;48.078;11.968;2023-05-29T11:30:19;26.90;94.70
16829;DHT22;8531;48.078;11.968;2023-05-29T11:32:46;27.10;95.10
16829;DHT22;8531;48.078;11.968;2023-05-29T11:35:13;27.00;94.50
16829;DHT22;8531;48.078;11.968;2023-05-29T11:37:40;27.30;93.70
16829;DHT22;8531;48.078;11.968;2023-05-29T11:40:09;27.80;93.40
16829;DHT22;8531;48.078;11.968;2023-05-29T11:42:44;27.50;92.90
16829;DHT22;8531;48.078;11.968;2023-05-29T11:45:15;27.30;93.10
16829;DHT22;8531;48.078;11.968;2023-05-29T11:47:57;27.60;93.40
16829;DHT22;8531;48.078;11.968;2023-05-29T11:50:25;27.90;93.50
16829;DHT22;8531;48.078;11.968;2023-05-29T11:52:51;28.10;91.60
16829;DHT22;8531;48.078;11.968;2023-05-29T11:55:21;27.60;91.50
16829;DHT22;8531;48.078;11.968;2023-05-29T11:57:50;28.20;89.60
16829;DHT22;8531;48.078;11.968;2023-05-29T12:00:17;28.50;91.30
16829;DHT22;8531;48.078;11.968;2023-05-29T12:02:44;28.50;91.60
16829;DHT22;8531;48.078;11.968;2023-05-29T12:05:15;28.70;91.10
16829;DHT22;8531;48.078;11.968;2023-05-29T12:07:51;28.30;91.00
16829;DHT22;8531;48.078;11.968;2023-05-29T12:10:19;27.90;91.10
16829;DHT22;8531;48.078;11.968;2023-05-29T12:12:55;27.80;90.90
16829;DHT22;8531;48.078;11.968;2023-05-29T12:15:22;28.40;90.70
16829;DHT22;8531;48.078;11.968;2023-05-29T12:17:49;27.90;88.00
16829;DHT22;8531;48.078;11.968;2023-05-29T12:20:16;27.60;88.90
16829;DHT22;8531;48.078;11.968;2023-05-29T12:22:43;27.90;90.60
16829;DHT22;8531;48.078;11.968;2023-05-29T12:25:13;28.10;90.80
16829;DHT22;8531;48.078;11.968;2023-05-29T12:27:41;27.60;91.30
16829;DHT22;8531;48.078;11.968;2023-05-29T12:30:11;27.90;91.40
16829;DHT22;8531;48.078;11.968;2023-05-29T12:32:42;28.20;91.60
16829;DHT22;8531;48.078;11.968;2023-05-29T12:37:47;28.80;91.80
16829;DHT22;8531;48.078;11.968;2023-05-29T12:40:17;29.00;91.30
16829;DHT22;8531;48.078;11.968;2023-05-29T12:42:44;28.10;91.80
16829;DHT22;8531;48.078;11.968;2023-05-29T12:45:10;27.10;92.70
16829;DHT22;8531;48.078;11.968;2023-05-29T12:47:37;27.30;92.10
16829;DHT22;8531;48.078;11.968;2023-05-29T12:50:19;28.10;92.10
16829;DHT22;8531;48.078;11.968;2023-05-29T12:52:59;27.50;92.60
16829;DHT22;8531;48.078;11.968;2023-05-29T12:55:30;27.80;92.30
16829;DHT22;8531;48.078;11.968;2023-05-29T12:57:58;28.50;92.30
16829;DHT22;8531;48.078;11.968;2023-05-29T13:00:25;27.90;93.00
16829;DHT22;8531;48.078;11.968;2023-05-29T13:02:51;27.80;93.90
16829;DHT22;8531;48.078;11.968;2023-05-29T13:05:18;27.60;92.70
16829;DHT22;8531;48.078;11.968;2023-05-29T13:07:46;27.30;92.70
16829;DHT22;8531;48.078;11.968;2023-05-29T13:10:11;27.10;93.00
16829;DHT22;8531;48.078;11.968;2023-05-29T13:12:37;27.50;92.70
16829;DHT22;8531;48.078;11.968;2023-05-29T13:15:03;27.60;93.00
16829;DHT22;8531;48.078;11.968;2023-05-29T13:17:29;27.30;92.30
16829;DHT22;8531;48.078;11.968;2023-05-29T13:19:54;27.30;92.90
16829;DHT22;8531;48.078;11.968;2023-05-29T13:22:20;27.70;93.40
16829;DHT22;8531;48.078;11.968;2023-05-29T13:24:46;28.00;92.60
16829;DHT22;8531;48.078;11.968;2023-05-29T13:27:12;28.00;93.10
16829;DHT22;8531;48.078;11.968;2023-05-29T13:29:42;28.00;93.00
16829;DHT22;8531;48.078;11.968;2023-05-29T13:32:08;27.70;92.70
16829;DHT22;8531;48.078;11.968;2023-05-29T13:34:34;27.60;92.70
16829;DHT22;8531;48.078;11.968;2023-05-29T13:37:00;27.20;93.50
16829;DHT22;8531;48.078;11.968;2023-05-29T13:39:28;27.30;92.90
16829;DHT22;8531;48.078;11.968;2023-05-29T13:41:53;26.70;93.00
16829;DHT22;8531;48.078;11.968;2023-05-29T13:44:19;26.90;92.80
16829;DHT22;8531;48.078;11.968;2023-05-29T13:46:45;26.80;93.40
16829;DHT22;8531;48.078;11.968;2023-05-29T13:49:11;27.20;92.50
16829;DHT22;8531;48.078;11.968;2023-05-29T13:51:36;27.40;93.00
16829;DHT22;8531;48.078;11.968;2023-05-29T13:54:03;27.30;92.80
16829;DHT22;8531;48.078;11.968;2023-05-29T13:56:29;27.10;92.30
16829;DHT22;8531;48.078;11.968;2023-05-29T13:58:56;27.30;92.70
16829;DHT22;8531;48.078;11.968;2023-05-29T14:01:22;26.80;92.70
16829;DHT22;8531;48.078;11.968;2023-05-29T14:03:49;26.90;92.80
16829;DHT22;8531;48.078;11.968;2023-05-29T14:06:15;27.10;93.10
16829;DHT22;8531;48.078;11.968;2023-05-29T14:08:41;27.30;93.60
16829;DHT22;8531;48.078;11.968;2023-05-29T14:11:06;27.20;93.20
16829;DHT22;8531;48.078;11.968;2023-05-29T14:13:32;26.40;93.00
16829;DHT22;8531;48.078;11.968;2023-05-29T14:15:58;26.60;93.60
16829;DHT22;8531;48.078;11.968;2023-05-29T14:18:23;26.70;93.00
16829;DHT22;8531;48.078;11.968;2023-05-29T14:20:49;27.40;93.10
16829;DHT22;8531;48.078;11.968;2023-05-29T14:23:17;27.40;93.00
16829;DHT22;8531;48.078;11.968;2023-05-29T14:25:43;27.40;92.70
16829;DHT22;8531;48.078;11.968;2023-05-29T14:28:08;27.20;92.50
16829;DHT22;8531;48.078;11.968;2023-05-29T14:30:35;27.00;92.60
16829;DHT22;8531;48.078;11.968;2023-05-29T14:33:00;26.90;92.40
16829;DHT22;8531;48.078;11.968;2023-05-29T14:35:26;26.60;92.20
16829;DHT22;8531;48.078;11.968;2023-05-29T14:37:52;26.50;92.10
16829;DHT22;8531;48.078;11.968;2023-05-29T14:40:17;26.80;91.80
16829;DHT22;8531;48.078;11.968;2023-05-29T14:42:43;26.70;92.30
16829;DHT22;8531;48.078;11.968;2023-05-29T14:45:09;26.20;92.50
16829;DHT22;8531;48.078;11.968;2023-05-29T14:47:38;26.30;92.00
16829;DHT22;8531;48.078;11.968;2023-05-29T14:50:04;26.60;90.90
16829;DHT22;8531;48.078;11.968;2023-05-29T14:52:29;27.00;91.40
16829;DHT22;8531;48.078;11.968;2023-05-29T14:54:55;26.70;91.20
16829;DHT22;8531;48.078;11.968;2023-05-29T14:57:21;26.90;91.40
16829;DHT22;8531;48.078;11.968;2023-05-29T14:59:47;27.00;92.00
16829;DHT22;8531;48.078;11.968;2023-05-29T15:02:12;26.10;91.70
16829;DHT22;8531;48.078;11.968;2023-05-29T15:04:38;26.50;91.20
16829;DHT22;8531;48.078;11.968;2023-05-29T15:07:04;26.40;91.60
16829;DHT22;8531;48.078;11.968;2023-05-29T15:09:30;26.80;91.60
16829;DHT22;8531;48.078;11.968;2023-05-29T15:11:56;26.60;91.40
16829;DHT22;8531;48.078;11.968;2023-05-29T15:14:21;26.90;90.80
16829;DHT22;8531;48.078;11.968;2023-05-29T15:16:47;26.50;91.10
16829;DHT22;8531;48.078;11.968;2023-05-29T15:19:14;26.70;91.30
16829;DHT22;8531;48.078;11.968;2023-05-29T15:21:40;26.50;91.20
16829;DHT22;8531;48.078;11.968;2023-05-29T15:24:06;26.60;91.00
16829;DHT22;8531;48.078;11.968;2023-05-29T15:26:33;26.70;90.90
16829;DHT22;8531;48.078;11.968;2023-05-29T15:29:00;26.30;91.00
16829;DHT22;8531;48.078;11.968;2023-05-29T15:31:25;26.50;91.20
16829;DHT22;8531;48.078;11.968;2023-05-29T15:33:51;26.20;90.50
16829;DHT22;8531;48.078;11.968;2023-05-29T15:36:17;26.10;90.30
16829;DHT22;8531;48.078;11.968;2023-05-29T15:38:45;26.60;90.20
16829;DHT22;8531;48.078;11.968;2023-05-29T15:41:10;26.00;91.00
16829;DHT22;8531;48.078;11.968;2023-05-29T15:43:36;25.70;91.20
16829;DHT22;8531;48.078;11.968;2023-05-29T15:46:02;26.00;91.70
16829;DHT22;8531;48.078;11.968;2023-05-29T15:48:29;25.80;91.40
16829;DHT22;8531;48.078;11.968;2023-05-29T15:50:55;26.00;91.40
16829;DHT22;8531;48.078;11.968;2023-05-29T15:53:20;25.70;91.30
16829;DHT22;8531;48.078;11.968;2023-05-29T15:55:46;25.50;91.50
16829;DHT22;8531;48.078;11.968;2023-05-29T15:58:12;25.80;91.50
16829;DHT22;8531;48.078;11.968;2023-05-29T16:00:37;26.30;91.20